• Join FlightAware (Why Join?)
  • Login
  • US Flag GB Flag 
19:04 EDT


 

Airport Tracker/Info


-or-


 

Live Flight TrackerFlight Track Log ✈ USC105 ✈ 11-Apr-2013 ✈ KDPA - KYIP

Flight Track Log - Related Links

Times and Time Zones

All times are in EDT time to prevent confusion due to time zone crossing. See the USC105 flight status page for this flight to view local times or setup timezone preferences in your user account.

Time Position Orientation Groundspeed Altitude Reporting Facility
EDT Latitude Longitude Course Direction KTS MPH feet Rate Location/Type
06:00 41.9167 -88.2333 124° Southeast 104 120 1,400  Level Chicago TRACON
06:01 41.9000 -88.2000 124° Southeast 103 119 2,400 720 Climbing Chicago TRACON
06:02 41.9000 -88.1667 90° East 130 150 2,800 540 Climbing Chicago TRACON
06:03 41.9000 -88.1000 90° East 156 180 3,500 660 Climbing Chicago TRACON
06:04 41.9167 -88.0500 66° East 159 183 4,200 600 Climbing Chicago TRACON
06:05 41.9167 -87.9833 90° East 168 193 4,700 540 Climbing Chicago TRACON
06:06 41.9333 -87.9167 71° East 176 203 5,300 600 Climbing Chicago TRACON
06:07 41.9333 -87.8500 90° East 175 201 5,900 300 Climbing Chicago TRACON
06:08 41.9333 -87.7833 90° East 194 223 6,000  Climbing Chicago TRACON
06:09 41.9500 -87.7167 71° East 205 236 6,000 120 Level Chicago TRACON
06:10 41.9500 -87.6333 90° East 194 223 6,300 300 Climbing Chicago TRACON
06:11 41.9667 -87.5667 71° East 188 216 6,700 300 Climbing Chicago TRACON
06:12 41.9667 -87.5000 90° East 194 223 7,000 120 Climbing Chicago TRACON
06:13 41.9833 -87.4333 71° East 205 236 7,000  Level Chicago TRACON
06:14 41.9833 -87.3500 90° East 205 236 7,000  Level Chicago TRACON
06:15 41.9967 -87.2925 73° East 202 232 7,000  Level Chicago Center
06:16 42.0058 -87.2200 80° East 200 230 7,000 -60 Level Chicago Center
06:17 42.0133 -87.1464 82° East 199 229 6,900  Descending Chicago Center
06:18 42.0169 -87.0717 86° East 200 230 7,000  Climbing Chicago Center
06:19 42.0225 -86.9969 84° East 201 231 7,000  Level Chicago Center
06:20 42.0275 -86.9228 85° East 200 230 7,000  Level Chicago Center
06:21 42.0319 -86.8478 85° East 202 232 7,000  Level Chicago Center
06:22 42.0364 -86.7733 85° East 201 231 7,000  Level Chicago Center
06:23 42.0403 -86.6967 86° East 203 234 7,000  Level Chicago Center
06:24 42.0450 -86.6197 85° East 207 238 7,000  Level Chicago Center
06:25 42.0497 -86.5428 85° East 207 238 7,000  Level Chicago Center
06:26 42.0556 -86.4661 84° East 207 238 7,000  Level Chicago Center
06:27 42.0619 -86.3892 84° East 206 237 7,000  Level Chicago Center
06:28 42.0667 -86.3131 85° East 205 236 7,000 -60 Level Chicago Center
06:29 42.0714 -86.2203 86° East 207 238 6,900 -60 Descending Chicago Center
06:30 42.0761 -86.1444 85° East 205 236 6,900  Level Chicago Center
06:31 42.0806 -86.0669 86° East 206 237 6,900  Level Chicago Center
06:32 42.0856 -85.9908 85° East 206 237 6,900  Level Chicago Center
06:33 42.0919 -85.9147 84° East 205 236 6,900  Level Chicago Center
06:34 42.0981 -85.8375 84° East 206 237 6,900  Level Chicago Center
06:35 42.1039 -85.7617 84° East 205 236 6,900  Level Chicago Center
06:36 42.1089 -85.6861 85° East 204 235 6,900  Level Chicago Center
06:37 42.1136 -85.6108 85° East 203 234 6,900  Level Chicago Center
06:38 42.1186 -85.5361 85° East 201 231 6,900  Level Chicago Center
06:39 42.1250 -85.4619 83° East 200 230 6,900  Level Chicago Center
06:40 42.1297 -85.3886 85° East 198 228 6,900  Level Chicago Center
06:41 42.1347 -85.3144 85° East 198 228 6,900  Level Chicago Center
06:42 42.1397 -85.2400 85° East 199 229 6,900  Level Chicago Center
06:43 42.1447 -85.1642 85° East 201 231 6,900  Level Chicago Center
06:44 42.1494 -85.0869 85° East 205 236 6,900  Level Chicago Center
06:45 42.1547 -85.0114 85° East 204 235 6,900  Level Chicago Center
06:46 42.1597 -84.9325 85° East 209 241 6,900  Level Chicago Center
06:47 42.1653 -84.8542 85° East 209 241 6,900  Level Chicago Center
06:48 42.1700 -84.7736 85° East 213 245 7,000  Climbing Chicago Center
06:49 42.1742 -84.6936 86° East 214 246 6,900 -120 Descending Chicago Center
06:50 42.1789 -84.6117 86° East 217 250 6,800 -300 Descending Chicago Center
06:50 42.1811 -84.5739 85° East 222 255 6,500 -600 Descending FAA TRACON SMA TRACON (SMA)
06:51 42.1831 -84.5417 85° East 227 261 6,400 -480 Descending FAA TRACON SMA TRACON (SMA)
06:51 42.1856 -84.5142 83° East 228 262 6,200 -360 Descending FAA TRACON SMA TRACON (SMA)
06:51 42.1872 -84.4883 85° East 227 261 6,200 -180 Level FAA TRACON SMA TRACON (SMA)
06:52 42.1889 -84.4572 86° East 225 259 6,100 -300 Descending FAA TRACON SMA TRACON (SMA)
06:52 42.1900 -84.4319 87° East 222 255 6,000 -480 Descending FAA TRACON SMA TRACON (SMA)
06:52 42.1917 -84.4006 86° East 219 252 5,800 -300 Descending FAA TRACON SMA TRACON (SMA)
06:53 42.1931 -84.3756 86° East 218 251 5,800 -180 Level FAA TRACON SMA TRACON (SMA)
06:53 42.1947 -84.3539 84° East 218 251 5,700 -480 Descending FAA TRACON SMA TRACON (SMA)
06:53 42.1969 -84.3192 85° East 218 251 5,500 -300 Descending FAA TRACON SMA TRACON (SMA)
06:54 42.1981 -84.2942 87° East 218 251 5,500 -180 Level FAA TRACON SMA TRACON (SMA)
06:54 42.1994 -84.2722 85° East 216 249 5,400 -300 Descending FAA TRACON SMA TRACON (SMA)
06:54 42.2011 -84.2450 85° East 214 246 5,300 -300 Descending FAA TRACON SMA TRACON (SMA)
06:55 42.2025 -84.2153 86° East 209 241 5,200 -180 Descending FAA TRACON SMA TRACON (SMA)
06:55 42.2036 -84.1936 86° East 208 239 5,200 -180 Level FAA TRACON SMA TRACON (SMA)
06:55 42.2053 -84.1681 85° East 206 237 5,100 -180 Descending FAA TRACON SMA TRACON (SMA)
06:56 42.2092 -84.1389 80° East 207 238 5,100 -180 Level FAA TRACON SMA TRACON (SMA)
06:56 42.2142 -84.1197 71° East 211 243 5,000 -300 Descending FAA TRACON SMA TRACON (SMA)
06:56 42.2197 -84.0881 77° East 204 235 4,900 -480 Descending FAA TRACON SMA TRACON (SMA)
06:57 42.2206 -84.0642 87° East 206 237 4,700 -600 Descending FAA TRACON SMA TRACON (SMA)
06:57 42.2197 -84.0442 93° East 204 235 4,500 -480 Descending FAA TRACON SMA TRACON (SMA)
06:57 42.2144 -84.0147 104° East 191 220 4,400 -360 Descending FAA TRACON SMA TRACON (SMA)
06:58 42.2108 -83.9936 103° East 189 217 4,300 -180 Descending FAA TRACON SMA TRACON (SMA)
06:58 42.2064 -83.9758 109° East 185 213 4,300 -180 Level FAA TRACON SMA TRACON (SMA)
06:58 42.2025 -83.9489 101° East 173 199 4,200 -300 Descending FAA TRACON SMA TRACON (SMA)
06:59 42.1994 -83.9300 102° East 171 197 4,100 -300 Descending FAA TRACON SMA TRACON (SMA)
06:59 42.1958 -83.9131 106° East 173 199 4,000 -480 Descending FAA TRACON SMA TRACON (SMA)
06:59 42.1922 -83.8917 103° East 168 193 3,800 -420 Descending FAA TRACON SMA TRACON (SMA)
07:00 42.1867 -83.8647 106° East 163 188 3,700 -300 Descending FAA TRACON SMA TRACON (SMA)
07:00 42.1833 -83.8472 104° East 159 183 3,600 -300 Descending FAA TRACON SMA TRACON (SMA)
07:01 42.1792 -83.8261 105° East 154 177 3,500 -480 Descending FAA TRACON SMA TRACON (SMA)
07:01 42.1753 -83.8094 107° East 151 174 3,300 -600 Descending FAA TRACON SMA TRACON (SMA)
07:01 42.1717 -83.7931 107° East 150 173 3,100 -780 Descending FAA TRACON SMA TRACON (SMA)
07:02 42.1667 -83.7719 108° East 152 175 2,800 -900 Descending FAA TRACON SMA TRACON (SMA)
07:02 42.1625 -83.7547 108° East 156 180 2,500 -480 Descending FAA TRACON SMA TRACON (SMA)
07:02 42.1644 -83.7367 82° East 155 178 2,500 -180 Level FAA TRACON SMA TRACON (SMA)
07:03 42.1661 -83.7147 84° East 166 191 2,400  Descending FAA TRACON SMA TRACON (SMA)
07:03 42.1658 -83.6981 91° East 145 167 2,500 120 Climbing FAA TRACON SMA TRACON (SMA)
07:03 42.1672 -83.6772 85° East 144 166 2,500  Level FAA TRACON SMA TRACON (SMA)
07:04 42.1689 -83.6614 82° East 143 165 2,500  Level FAA TRACON SMA TRACON (SMA)
07:04 42.1717 -83.6453 77° East 145 167 2,500  Level FAA TRACON SMA TRACON (SMA)
07:04 42.1706 -83.6303 96° East 141 162 2,500  Level FAA TRACON SMA TRACON (SMA)
07:05 42.1792 -83.6161 51° Northeast 118 136 2,500 -480 Level FAA TRACON SMA TRACON (SMA)
07:05 42.1856 -83.6047 53° Northeast 130 150 2,200 -780 Descending FAA TRACON SMA TRACON (SMA)
07:05 42.1928 -83.5953 44° Northeast 120 138 2,000 -780 Descending FAA TRACON SMA TRACON (SMA)
07:06 42.2011 -83.5819 50° Northeast 118 136 1,700 -780 Descending FAA TRACON SMA TRACON (SMA)
07:06 42.2081 -83.5722 46° Northeast 118 136 1,500 -780 Descending FAA TRACON SMA TRACON (SMA)
07:06 42.2147 -83.5622 48° Northeast 117 135 1,200 -600 Descending FAA TRACON SMA TRACON (SMA)
07:07 42.2203 -83.5539 48° Northeast 115 132 1,100 -480 Descending FAA TRACON SMA TRACON (SMA)
07:07 42.2286 -83.5419 47° Northeast 110 127 900 -360 Descending FAA TRACON SMA TRACON (SMA)
07:07 42.2286 -83.5419 289° West 110 127 900  Level FAA TRACON SMA TRACON (SMA)